createdAt,value
2022-10-16T00:02:01.643Z,2.60
2022-10-16T00:04:50.093Z,2.80
2022-10-16T00:07:38.501Z,3.00
2022-10-16T00:10:26.903Z,2.83
2022-10-16T00:13:15.302Z,3.53
2022-10-16T00:16:05.894Z,2.83
2022-10-16T00:18:54.335Z,3.00
2022-10-16T00:21:43.155Z,3.53
2022-10-16T00:24:31.587Z,3.27
2022-10-16T00:27:20.072Z,3.10
2022-10-16T00:30:10.195Z,2.77
2022-10-16T00:33:00.090Z,3.00
2022-10-16T00:35:48.766Z,3.13
2022-10-16T00:38:38.665Z,3.87
2022-10-16T00:41:27.435Z,4.00
2022-10-16T00:44:44.739Z,4.17
2022-10-16T00:47:36.143Z,3.37
2022-10-16T00:50:29.377Z,2.63
2022-10-16T00:53:18.715Z,2.47
2022-10-16T00:56:07.858Z,2.47
2022-10-16T00:58:56.366Z,2.40
2022-10-16T01:01:44.855Z,2.70
2022-10-16T01:04:39.147Z,3.27
2022-10-16T01:07:37.061Z,3.10
2022-10-16T01:10:30.017Z,2.20
2022-10-16T01:13:22.575Z,2.13
2022-10-16T01:16:15.927Z,2.83
2022-10-16T01:19:10.559Z,2.40
2022-10-16T01:21:59.907Z,2.60
2022-10-16T01:24:51.294Z,2.70
2022-10-16T01:27:42.455Z,2.27
2022-10-16T01:30:33.059Z,2.23
2022-10-16T01:33:23.601Z,2.60
2022-10-16T01:36:15.587Z,2.70
2022-10-16T01:39:04.593Z,2.10
2022-10-16T01:41:57.172Z,2.40
2022-10-16T01:44:47.752Z,2.27
2022-10-16T01:47:37.631Z,2.50
2022-10-16T01:50:26.557Z,3.57
2022-10-16T01:53:15.905Z,2.70
2022-10-16T01:56:06.196Z,2.67
2022-10-16T01:58:56.888Z,2.17
2022-10-16T02:01:49.007Z,2.27
2022-10-16T02:04:40.380Z,2.63
2022-10-16T02:07:28.926Z,1.90
2022-10-16T02:10:17.859Z,2.13
2022-10-16T02:13:09.786Z,2.30
2022-10-16T02:15:58.206Z,2.00
2022-10-16T02:18:47.994Z,2.07
2022-10-16T02:21:42.208Z,2.23
2022-10-16T02:24:35.269Z,2.20
2022-10-16T02:27:28.123Z,1.87
2022-10-16T02:30:20.098Z,2.50
2022-10-16T02:33:11.450Z,1.80
2022-10-16T02:36:01.383Z,2.70
2022-10-16T02:38:49.829Z,1.70
2022-10-16T02:41:38.698Z,2.03
2022-10-16T02:44:27.277Z,2.23
2022-10-16T02:47:15.763Z,2.60
2022-10-16T02:50:04.749Z,2.10
2022-10-16T02:52:54.545Z,2.10
2022-10-16T02:55:42.974Z,2.47
2022-10-16T02:58:31.448Z,2.10
2022-10-16T03:01:19.964Z,2.30
2022-10-16T03:04:08.464Z,2.40
2022-10-16T03:06:56.959Z,2.27
2022-10-16T03:09:46.693Z,2.07
2022-10-16T03:12:35.189Z,3.23
2022-10-16T03:15:23.643Z,2.60
2022-10-16T03:18:12.056Z,2.03
2022-10-16T03:21:00.483Z,2.60
2022-10-16T03:23:48.911Z,2.20
2022-10-16T03:26:38.720Z,2.10
2022-10-16T03:29:28.549Z,2.50
2022-10-16T03:32:16.957Z,2.27
2022-10-16T03:35:05.985Z,3.07
2022-10-16T03:37:54.408Z,2.40
2022-10-16T03:40:42.805Z,2.50
2022-10-16T03:43:32.568Z,2.53
2022-10-16T03:46:21.007Z,2.50
2022-10-16T03:49:10.016Z,2.50
2022-10-16T03:51:58.541Z,2.50
2022-10-16T03:54:46.940Z,2.60
2022-10-16T03:57:35.353Z,1.90
2022-10-16T04:00:25.116Z,2.50
2022-10-16T04:03:13.830Z,2.63
2022-10-16T04:06:02.287Z,2.73
2022-10-16T04:08:50.922Z,2.37
2022-10-16T04:11:39.915Z,2.10
2022-10-16T04:14:28.385Z,2.60
2022-10-16T04:17:18.161Z,2.60
2022-10-16T04:20:07.818Z,3.67
2022-10-16T04:22:56.260Z,2.50
2022-10-16T04:25:44.671Z,2.63
2022-10-16T04:28:33.114Z,2.40
2022-10-16T04:31:21.620Z,2.53
2022-10-16T04:34:11.362Z,2.30
2022-10-16T04:36:59.771Z,2.50
2022-10-16T04:39:48.160Z,2.60
2022-10-16T04:42:36.581Z,2.13
2022-10-16T04:45:25.070Z,3.83
2022-10-16T04:48:13.538Z,3.10
2022-10-16T04:51:03.363Z,3.07
2022-10-16T04:53:51.765Z,2.53
2022-10-16T04:56:47.473Z,2.47
2022-10-16T04:59:36.006Z,2.30
2022-10-16T05:02:24.626Z,2.00
2022-10-16T05:05:13.299Z,2.17
2022-10-16T05:08:03.236Z,2.40
2022-10-16T05:10:51.699Z,2.27
2022-10-16T05:13:40.114Z,1.90
2022-10-16T05:16:28.780Z,2.33
2022-10-16T05:19:32.404Z,2.13
2022-10-16T05:22:20.857Z,2.10
2022-10-16T05:25:10.672Z,2.37
2022-10-16T05:27:59.112Z,2.73
2022-10-16T05:30:47.551Z,2.30
2022-10-16T05:33:36.185Z,2.00
2022-10-16T05:36:24.642Z,2.67
2022-10-16T05:39:13.148Z,2.07
2022-10-16T05:42:02.896Z,2.60
2022-10-16T05:44:51.312Z,2.23
2022-10-16T05:47:39.944Z,2.30
2022-10-16T05:50:28.409Z,2.70
2022-10-16T05:53:16.788Z,2.23
2022-10-16T05:56:06.297Z,2.70
2022-10-16T05:58:56.291Z,2.87
2022-10-16T06:01:44.706Z,4.23
2022-10-16T06:04:33.109Z,3.77
2022-10-16T06:07:21.571Z,2.90
2022-10-16T06:10:10.631Z,2.60
2022-10-16T06:12:59.056Z,2.27
2022-10-16T06:15:48.812Z,3.03
2022-10-16T06:18:37.374Z,3.13
2022-10-16T06:21:27.232Z,2.77
2022-10-16T06:24:15.669Z,2.70
2022-10-16T06:27:05.256Z,2.37
2022-10-16T06:29:53.779Z,2.50
2022-10-16T06:32:43.590Z,3.20
2022-10-16T06:35:32.891Z,2.97
2022-10-16T06:38:21.282Z,3.20
2022-10-16T06:41:12.085Z,4.00
2022-10-16T06:44:00.483Z,3.40
2022-10-16T06:46:48.905Z,3.37
2022-10-16T06:49:38.805Z,3.60
2022-10-16T06:52:29.746Z,3.20
2022-10-16T06:55:18.325Z,2.87
2022-10-16T06:58:06.724Z,5.93
2022-10-16T07:00:57.777Z,2.80
2022-10-16T07:03:47.354Z,3.67
2022-10-16T07:06:37.142Z,4.90
2022-10-16T07:09:25.852Z,3.40
2022-10-16T07:12:14.328Z,2.80
2022-10-16T07:15:02.855Z,3.13
2022-10-16T07:17:51.305Z,3.30
2022-10-16T07:20:39.718Z,3.33
2022-10-16T07:23:29.534Z,3.13
2022-10-16T07:26:18.244Z,3.43
2022-10-16T07:29:06.899Z,3.60
2022-10-16T07:31:55.355Z,3.50
2022-10-16T07:34:44.292Z,3.30
2022-10-16T07:37:32.703Z,3.13
2022-10-16T07:40:23.147Z,3.90
2022-10-16T07:43:11.703Z,3.30
2022-10-16T07:46:02.599Z,3.40
2022-10-16T07:48:54.307Z,2.93
2022-10-16T07:51:42.799Z,2.70
2022-10-16T07:54:31.312Z,3.13
2022-10-16T07:57:21.114Z,3.07
2022-10-16T08:00:14.428Z,2.50
2022-10-16T08:03:02.960Z,2.97
2022-10-16T08:05:51.547Z,14.03
2022-10-16T08:08:40.069Z,2.77
2022-10-16T08:11:28.482Z,5.90
2022-10-16T08:14:18.283Z,3.03
2022-10-16T08:17:06.727Z,3.27
2022-10-16T08:19:55.170Z,2.70
2022-10-16T08:22:43.572Z,3.40
2022-10-16T08:25:32.027Z,3.70
2022-10-16T08:28:20.534Z,4.03
2022-10-16T08:31:11.866Z,2.70
2022-10-16T08:34:00.319Z,2.73
2022-10-16T08:36:48.769Z,3.33
2022-10-16T08:39:37.199Z,2.73
2022-10-16T08:42:40.003Z,2.57
2022-10-16T08:45:36.477Z,2.77
2022-10-16T08:48:31.350Z,2.13
2022-10-16T08:51:23.528Z,2.50
2022-10-16T08:54:23.276Z,2.23
2022-10-16T08:57:16.320Z,3.30
2022-10-16T09:00:15.518Z,2.07
2022-10-16T09:03:09.320Z,2.07
2022-10-16T09:06:08.820Z,2.80
2022-10-16T09:09:10.708Z,3.07
2022-10-16T09:12:02.964Z,2.80
2022-10-16T09:15:01.547Z,2.00
2022-10-16T09:17:56.563Z,2.17
2022-10-16T09:20:52.239Z,2.20
2022-10-16T09:23:42.379Z,2.27
2022-10-16T09:26:30.896Z,1.80
2022-10-16T09:29:21.593Z,1.77
2022-10-16T09:32:13.941Z,2.03
2022-10-16T09:35:02.759Z,2.70
2022-10-16T09:37:52.891Z,2.73
2022-10-16T09:40:44.742Z,2.07
2022-10-16T09:43:37.350Z,2.27
2022-10-16T09:46:29.212Z,2.40
2022-10-16T09:49:23.872Z,2.50
2022-10-16T09:52:14.942Z,2.03
2022-10-16T09:55:11.408Z,2.20
2022-10-16T09:58:01.273Z,2.00
2022-10-16T10:00:54.380Z,2.10
2022-10-16T10:03:44.479Z,2.37
2022-10-16T10:06:34.752Z,2.27
2022-10-16T10:09:25.057Z,2.70
2022-10-16T10:12:22.985Z,2.90
2022-10-16T10:15:20.836Z,2.30
2022-10-16T10:18:18.848Z,2.67
2022-10-16T10:21:07.831Z,2.20
2022-10-16T10:23:59.207Z,2.37
2022-10-16T10:26:53.324Z,2.40
2022-10-16T10:29:49.273Z,2.00
2022-10-16T10:32:45.152Z,3.07
2022-10-16T10:35:37.624Z,2.33
2022-10-16T10:38:33.357Z,3.00
2022-10-16T10:41:47.214Z,2.60
2022-10-16T10:45:06.190Z,2.73
2022-10-16T10:48:06.134Z,2.20
2022-10-16T10:50:58.020Z,2.40
2022-10-16T10:53:51.392Z,2.67
2022-10-16T10:56:46.047Z,2.53
2022-10-16T10:59:59.021Z,4.03
2022-10-16T11:02:50.976Z,3.43
2022-10-16T11:05:43.583Z,4.27
2022-10-16T11:08:36.303Z,2.90
2022-10-16T11:11:27.941Z,3.43
2022-10-16T11:14:19.505Z,3.70
2022-10-16T11:17:12.461Z,2.43
2022-10-16T11:20:04.872Z,2.53
2022-10-16T11:22:57.423Z,20.80
2022-10-16T11:25:47.387Z,2.90
2022-10-16T11:28:39.638Z,2.80
2022-10-16T11:31:33.008Z,2.40
2022-10-16T11:34:24.891Z,3.13
2022-10-16T11:37:16.362Z,2.50
2022-10-16T11:40:19.481Z,3.13
2022-10-16T11:43:13.296Z,2.50
2022-10-16T11:46:09.232Z,2.30
2022-10-16T11:49:04.874Z,1.83
2022-10-16T11:52:00.971Z,2.80
2022-10-16T11:54:52.493Z,2.30
2022-10-16T11:57:46.309Z,2.30
2022-10-16T12:00:40.312Z,2.10
2022-10-16T12:03:31.787Z,2.37
2022-10-16T12:06:30.412Z,2.00
2022-10-16T12:09:23.575Z,2.10
2022-10-16T12:12:28.260Z,2.00
2022-10-16T12:15:47.051Z,1.90
2022-10-16T12:18:34.830Z,2.20
2022-10-16T12:21:32.015Z,1.80
2022-10-16T12:24:29.956Z,2.10
2022-10-16T12:27:26.929Z,1.90
2022-10-16T12:30:24.496Z,1.90
2022-10-16T12:33:23.329Z,1.90
2022-10-16T12:36:15.987Z,2.00
2022-10-16T12:39:05.032Z,1.93
2022-10-16T12:42:03.113Z,2.30
2022-10-16T12:44:52.105Z,2.63
2022-10-16T12:47:51.146Z,2.50
2022-10-16T12:50:41.689Z,2.47
2022-10-16T12:53:30.604Z,2.50
2022-10-16T12:56:24.313Z,2.40
2022-10-16T12:59:21.437Z,2.00
2022-10-16T13:02:44.917Z,2.00
2022-10-16T13:05:41.296Z,2.50
2022-10-16T13:08:48.174Z,2.20
2022-10-16T13:11:47.924Z,2.07
2022-10-16T13:14:56.146Z,1.90
2022-10-16T13:17:52.094Z,2.30
2022-10-16T13:20:57.544Z,2.60
2022-10-16T13:23:52.197Z,1.93
2022-10-16T13:26:45.527Z,2.13
2022-10-16T13:29:34.685Z,2.63
2022-10-16T13:32:23.674Z,2.40
2022-10-16T13:35:24.804Z,2.13
2022-10-16T13:38:17.911Z,3.37
2022-10-16T13:41:08.351Z,2.27
2022-10-16T13:43:58.689Z,1.90
2022-10-16T13:46:47.182Z,1.90
2022-10-16T13:49:35.751Z,2.90
2022-10-16T13:52:25.764Z,2.53
2022-10-16T13:55:15.465Z,2.17
2022-10-16T13:58:07.659Z,2.47
2022-10-16T14:00:58.518Z,2.60
2022-10-16T14:03:47.745Z,2.20
2022-10-16T14:06:37.366Z,2.67
2022-10-16T14:09:28.627Z,2.50
2022-10-16T14:12:17.453Z,1.90
2022-10-16T14:15:07.280Z,2.57
2022-10-16T14:17:55.961Z,2.87
2022-10-16T14:20:44.602Z,2.40
2022-10-16T14:23:34.492Z,1.93
2022-10-16T14:26:25.515Z,3.20
2022-10-16T14:29:17.169Z,2.80
2022-10-16T14:32:07.085Z,2.33
2022-10-16T14:34:56.302Z,2.57
2022-10-16T14:37:45.960Z,2.60
2022-10-16T14:40:35.859Z,3.00
2022-10-16T14:43:31.145Z,2.30
2022-10-16T14:46:22.911Z,2.33
2022-10-16T14:49:17.560Z,3.67
2022-10-16T14:52:10.992Z,2.00
2022-10-16T14:54:59.406Z,2.50
2022-10-16T14:57:48.119Z,2.67
2022-10-16T15:00:37.923Z,2.20
2022-10-16T15:03:26.460Z,2.20
2022-10-16T15:06:15.918Z,2.23
2022-10-16T15:09:04.653Z,1.90
2022-10-16T15:11:53.165Z,2.50
2022-10-16T15:14:41.740Z,2.30
2022-10-16T15:17:31.516Z,5.00
2022-10-16T15:20:19.999Z,2.20
2022-10-16T15:23:15.140Z,2.57
2022-10-16T15:26:03.689Z,2.40
2022-10-16T15:28:52.277Z,2.40
2022-10-16T15:31:43.422Z,2.70
2022-10-16T15:34:33.208Z,2.03
2022-10-16T15:37:21.771Z,3.00
2022-10-16T15:40:11.860Z,2.40
2022-10-16T15:43:00.325Z,3.07
2022-10-16T15:46:00.534Z,3.03
2022-10-16T15:48:49.774Z,3.60
2022-10-16T15:51:42.364Z,2.83
2022-10-16T15:54:30.839Z,2.20
2022-10-16T15:57:19.515Z,3.10
2022-10-16T16:00:10.700Z,2.77
2022-10-16T16:02:59.501Z,2.80
2022-10-16T16:05:48.069Z,2.30
2022-10-16T16:08:38.283Z,2.80
2022-10-16T16:11:26.868Z,2.80
2022-10-16T16:14:15.935Z,3.83
2022-10-16T16:17:04.395Z,4.43
2022-10-16T16:19:52.878Z,4.30
2022-10-16T16:22:41.693Z,3.73
2022-10-16T16:25:31.617Z,3.40
2022-10-16T16:28:20.114Z,5.43
2022-10-16T16:31:09.031Z,7.40
2022-10-16T16:33:58.474Z,5.20
2022-10-16T16:36:46.909Z,5.10
2022-10-16T16:39:35.509Z,4.47
2022-10-16T16:42:25.362Z,4.60
2022-10-16T16:45:13.946Z,5.10
2022-10-16T16:48:02.505Z,4.53
2022-10-16T16:50:50.937Z,4.53
2022-10-16T16:53:39.435Z,4.10
2022-10-16T16:56:28.367Z,5.70
2022-10-16T16:59:20.623Z,4.23
2022-10-16T17:02:11.097Z,4.00
2022-10-16T17:04:59.648Z,4.23
2022-10-16T17:07:48.641Z,4.20
2022-10-16T17:10:44.660Z,4.60
2022-10-16T17:13:37.880Z,4.53
2022-10-16T17:16:29.808Z,4.17
2022-10-16T17:19:19.737Z,4.50
2022-10-16T17:22:08.217Z,4.33
2022-10-16T17:24:56.972Z,5.47
2022-10-16T17:27:45.586Z,4.47
2022-10-16T17:30:35.629Z,5.60
2022-10-16T17:33:25.484Z,5.30
2022-10-16T17:36:15.051Z,4.80
2022-10-16T17:39:06.320Z,4.83
2022-10-16T17:41:55.685Z,4.63
2022-10-16T17:44:44.243Z,5.30
2022-10-16T17:47:32.736Z,5.30
2022-10-16T17:50:22.810Z,5.63
2022-10-16T17:53:11.415Z,5.40
2022-10-16T17:56:04.614Z,6.30
2022-10-16T17:58:55.307Z,6.10
2022-10-16T18:01:46.193Z,5.90
2022-10-16T18:04:34.948Z,5.50
2022-10-16T18:07:25.169Z,5.50
2022-10-16T18:10:15.522Z,5.00
2022-10-16T18:13:07.163Z,5.60
2022-10-16T18:16:01.583Z,5.80
2022-10-16T18:18:50.322Z,6.80
2022-10-16T18:21:39.157Z,6.70
2022-10-16T18:24:29.310Z,6.67
2022-10-16T18:27:17.895Z,5.70
2022-10-16T18:30:07.668Z,6.90
2022-10-16T18:32:56.161Z,6.93
2022-10-16T18:35:44.753Z,5.30
2022-10-16T18:38:33.669Z,6.10
2022-10-16T18:41:23.815Z,6.40
2022-10-16T18:44:13.281Z,6.07
2022-10-16T18:47:02.468Z,6.10
2022-10-16T18:49:51.498Z,6.20
2022-10-16T18:52:40.122Z,6.13
2022-10-16T18:55:30.946Z,6.63
2022-10-16T18:58:21.178Z,7.20
2022-10-16T19:01:11.208Z,6.83
2022-10-16T19:04:06.806Z,6.33
2022-10-16T19:06:55.933Z,5.90
2022-10-16T19:09:44.511Z,5.90
2022-10-16T19:12:33.039Z,5.80
2022-10-16T19:15:23.255Z,5.77
2022-10-16T19:18:11.772Z,5.90
2022-10-16T19:21:03.227Z,5.90
2022-10-16T19:23:53.011Z,5.20
2022-10-16T19:26:42.195Z,5.80
2022-10-16T19:29:31.018Z,5.87
2022-10-16T19:32:20.974Z,5.00
2022-10-16T19:35:10.292Z,5.83
2022-10-16T19:37:58.734Z,5.43
2022-10-16T19:40:47.276Z,5.43
2022-10-16T19:43:36.046Z,5.50
2022-10-16T19:46:26.287Z,4.77
2022-10-16T19:49:21.116Z,5.53
2022-10-16T19:52:09.577Z,4.20
2022-10-16T19:54:58.319Z,4.40
2022-10-16T19:57:47.003Z,5.37
2022-10-16T20:00:35.543Z,6.43
2022-10-16T20:03:24.014Z,6.60
2022-10-16T20:06:14.570Z,5.50
2022-10-16T20:09:03.108Z,5.93
2022-10-16T20:11:51.556Z,5.83
2022-10-16T20:14:40.004Z,6.30
2022-10-16T20:17:29.024Z,5.47
2022-10-16T20:20:18.152Z,5.20
2022-10-16T20:23:08.092Z,6.17
2022-10-16T20:25:58.199Z,5.83
2022-10-16T20:28:49.232Z,5.33
2022-10-16T20:31:38.310Z,5.43
2022-10-16T20:34:26.804Z,5.30
2022-10-16T20:37:15.301Z,5.20
2022-10-16T20:40:05.993Z,5.80
2022-10-16T20:42:54.434Z,4.70
2022-10-16T20:45:42.947Z,5.37
2022-10-16T20:48:31.494Z,6.07
2022-10-16T20:51:22.061Z,5.03
2022-10-16T20:54:12.501Z,4.97
2022-10-16T20:57:02.284Z,5.10
2022-10-16T20:59:54.912Z,5.43
2022-10-16T21:02:43.353Z,5.30
2022-10-16T21:05:34.441Z,5.90
2022-10-16T21:08:22.919Z,5.80
2022-10-16T21:11:12.883Z,5.77
2022-10-16T21:14:04.305Z,5.77
2022-10-16T21:16:52.729Z,6.10
2022-10-16T21:19:41.178Z,5.70
2022-10-16T21:22:30.571Z,5.70
2022-10-16T21:25:19.467Z,5.83
2022-10-16T21:28:07.902Z,6.03
2022-10-16T21:30:57.760Z,5.90
2022-10-16T21:33:46.457Z,5.67
2022-10-16T21:36:36.433Z,5.90
2022-10-16T21:39:24.860Z,6.40
2022-10-16T21:42:13.310Z,6.03
2022-10-16T21:45:01.743Z,6.40
2022-10-16T21:47:51.570Z,7.37
2022-10-16T21:50:40.006Z,6.57
2022-10-16T21:53:28.505Z,6.50
2022-10-16T21:56:18.451Z,6.60
2022-10-16T21:59:07.413Z,6.60
2022-10-16T22:01:56.579Z,6.67
2022-10-16T22:04:46.401Z,6.77
2022-10-16T22:07:34.861Z,5.87
2022-10-16T22:10:23.292Z,5.40
2022-10-16T22:13:11.705Z,5.73
2022-10-16T22:16:00.461Z,5.40
2022-10-16T22:18:49.273Z,5.40
2022-10-16T22:21:40.742Z,4.40
2022-10-16T22:24:29.188Z,5.00
2022-10-16T22:27:17.669Z,4.83
2022-10-16T22:30:07.089Z,5.60
2022-10-16T22:32:55.543Z,6.00
2022-10-16T22:35:44.014Z,5.70
2022-10-16T22:38:34.938Z,6.50
2022-10-16T22:41:24.576Z,6.50
2022-10-16T22:44:13.594Z,6.40
2022-10-16T22:47:02.026Z,6.50
2022-10-16T22:49:50.468Z,6.63
2022-10-16T22:52:39.235Z,6.03
2022-10-16T22:55:29.088Z,7.00
2022-10-16T22:58:17.531Z,6.03
2022-10-16T23:01:12.381Z,5.97
2022-10-16T23:04:02.096Z,5.87
2022-10-16T23:06:50.604Z,5.43
2022-10-16T23:09:39.370Z,6.30
2022-10-16T23:12:29.860Z,5.70
2022-10-16T23:15:18.702Z,5.30
2022-10-16T23:18:07.148Z,5.20
2022-10-16T23:20:55.595Z,5.20
2022-10-16T23:23:44.693Z,5.37
2022-10-16T23:26:35.170Z,4.70
2022-10-16T23:29:24.948Z,5.43
2022-10-16T23:32:13.649Z,6.17
2022-10-16T23:35:02.134Z,5.13
2022-10-16T23:37:51.444Z,6.17
2022-10-16T23:40:39.855Z,5.27
2022-10-16T23:43:28.706Z,5.37
2022-10-16T23:46:18.562Z,6.00
2022-10-16T23:49:07.079Z,5.53
2022-10-16T23:51:55.728Z,5.57
2022-10-16T23:54:44.154Z,5.53
2022-10-16T23:57:32.563Z,6.23
